createdAt,value
2019-05-16T00:02:28.517Z,99.90
2019-05-16T00:04:59.167Z,99.90
2019-05-16T00:07:28.882Z,99.80
2019-05-16T00:09:59.107Z,99.50
2019-05-16T00:12:29.293Z,99.90
2019-05-16T00:15:00.057Z,99.70
2019-05-16T00:17:32.055Z,99.90
2019-05-16T00:20:01.830Z,99.90
2019-05-16T00:22:31.751Z,99.90
2019-05-16T00:25:01.327Z,99.90
2019-05-16T00:27:31.108Z,99.90
2019-05-16T00:30:00.856Z,99.90
2019-05-16T00:32:30.563Z,99.90
2019-05-16T00:35:00.237Z,99.90
2019-05-16T00:37:30.021Z,99.90
2019-05-16T00:39:59.747Z,99.90
2019-05-16T00:42:31.116Z,99.90
2019-05-16T00:45:00.914Z,99.90
2019-05-16T00:47:31.190Z,99.90
2019-05-16T00:50:00.949Z,99.90
2019-05-16T00:52:30.902Z,99.90
2019-05-16T00:55:00.820Z,99.90
2019-05-16T00:57:31.289Z,99.90
2019-05-16T01:00:02.009Z,99.90
2019-05-16T01:02:32.044Z,99.90
2019-05-16T01:05:01.891Z,99.90
2019-05-16T01:07:31.610Z,99.90
2019-05-16T01:10:01.338Z,99.90
2019-05-16T01:12:32.765Z,99.90
2019-05-16T01:15:02.453Z,99.90
2019-05-16T01:17:32.783Z,99.90
2019-05-16T01:20:02.494Z,99.90
2019-05-16T01:22:32.263Z,99.90
2019-05-16T01:25:02.032Z,99.90
2019-05-16T01:27:31.852Z,99.90
2019-05-16T01:30:04.329Z,99.90
2019-05-16T01:32:34.113Z,99.90
2019-05-16T01:35:04.847Z,99.90
2019-05-16T01:37:33.710Z,99.90
2019-05-16T01:40:03.333Z,99.90
2019-05-16T01:42:32.951Z,99.90
2019-05-16T01:45:02.882Z,99.90
2019-05-16T01:47:34.760Z,99.90
2019-05-16T01:50:05.159Z,99.90
2019-05-16T01:52:34.952Z,99.90
2019-05-16T01:55:05.188Z,99.90
2019-05-16T01:57:34.940Z,99.90
2019-05-16T02:00:08.176Z,99.90
2019-05-16T02:02:38.644Z,99.90
2019-05-16T02:05:09.125Z,99.90
2019-05-16T02:07:39.011Z,99.90
2019-05-16T02:10:09.191Z,99.90
2019-05-16T02:12:38.848Z,99.90
2019-05-16T02:15:08.923Z,99.90
2019-05-16T02:17:38.725Z,99.90
2019-05-16T02:20:08.999Z,99.90
2019-05-16T02:22:39.579Z,99.90
2019-05-16T02:25:09.735Z,99.90
2019-05-16T02:27:41.105Z,99.90
2019-05-16T02:30:12.769Z,99.90
2019-05-16T02:32:42.546Z,99.90
2019-05-16T02:35:12.363Z,99.90
2019-05-16T02:37:42.713Z,99.90
2019-05-16T02:40:14.114Z,99.90
2019-05-16T02:42:44.730Z,99.90
2019-05-16T02:45:14.878Z,99.90
2019-05-16T02:47:45.760Z,99.90
2019-05-16T02:50:15.585Z,99.90
2019-05-16T02:52:45.277Z,99.90
2019-05-16T02:55:15.100Z,99.90
2019-05-16T02:57:44.726Z,99.90
2019-05-16T03:00:14.802Z,99.90
2019-05-16T03:02:44.604Z,99.90
2019-05-16T03:05:14.242Z,99.90
2019-05-16T03:07:47.318Z,99.90
2019-05-16T03:10:16.629Z,99.90
2019-05-16T03:12:51.218Z,99.90
2019-05-16T03:15:21.856Z,99.90
2019-05-16T03:17:52.776Z,99.90
2019-05-16T03:20:23.460Z,99.90
2019-05-16T03:22:57.641Z,99.90
2019-05-16T03:25:31.082Z,99.90
2019-05-16T03:28:02.000Z,99.90
2019-05-16T03:30:34.804Z,99.90
2019-05-16T03:33:04.654Z,99.90
2019-05-16T03:35:34.723Z,99.90
2019-05-16T03:38:05.397Z,99.90
2019-05-16T03:40:36.206Z,99.90
2019-05-16T03:43:05.038Z,99.90
2019-05-16T03:45:34.595Z,99.90
2019-05-16T03:48:04.300Z,99.90
2019-05-16T03:50:34.067Z,99.90
2019-05-16T03:53:03.810Z,99.90
2019-05-16T03:55:33.494Z,99.90
2019-05-16T03:58:03.187Z,99.90
2019-05-16T04:00:52.769Z,99.90
2019-05-16T04:03:22.798Z,99.90
2019-05-16T04:05:53.126Z,99.90
2019-05-16T04:08:25.281Z,99.90
2019-05-16T04:10:55.413Z,99.90
2019-05-16T04:13:25.149Z,99.90
2019-05-16T04:15:54.813Z,99.90
2019-05-16T04:18:24.540Z,99.90
2019-05-16T04:20:55.166Z,99.90
2019-05-16T04:23:24.826Z,99.90
2019-05-16T04:25:54.559Z,99.90
2019-05-16T04:28:24.292Z,99.90
2019-05-16T04:30:54.098Z,99.90
2019-05-16T04:33:23.848Z,99.90
2019-05-16T04:35:53.632Z,99.90
2019-05-16T04:38:35.094Z,99.90
2019-05-16T04:40:55.689Z,99.90
2019-05-16T04:43:24.540Z,99.90
2019-05-16T04:45:54.284Z,99.90
2019-05-16T04:48:24.114Z,99.90
2019-05-16T04:50:53.849Z,99.90
2019-05-16T04:53:23.453Z,99.90
2019-05-16T04:55:53.159Z,99.90
2019-05-16T04:58:23.933Z,99.90
2019-05-16T05:00:53.853Z,99.90
2019-05-16T05:03:23.660Z,99.90
2019-05-16T05:05:53.396Z,99.90
2019-05-16T05:08:23.113Z,99.50
2019-05-16T05:10:52.901Z,99.10
2019-05-16T05:13:22.802Z,98.70
2019-05-16T05:15:52.655Z,98.30
2019-05-16T05:18:22.292Z,97.70
2019-05-16T05:20:53.072Z,97.40
2019-05-16T05:23:22.664Z,96.80
2019-05-16T05:25:52.455Z,96.60
2019-05-16T05:28:22.255Z,95.10
2019-05-16T05:30:51.742Z,94.20
2019-05-16T05:33:21.914Z,94.50
2019-05-16T05:35:51.627Z,94.70
2019-05-16T05:38:22.937Z,93.70
2019-05-16T05:40:53.296Z,93.70
2019-05-16T05:43:22.949Z,93.70
2019-05-16T05:45:52.729Z,92.90
2019-05-16T05:48:22.483Z,92.20
2019-05-16T05:50:52.318Z,91.40
2019-05-16T05:53:21.952Z,90.60
2019-05-16T05:55:52.013Z,88.10
2019-05-16T05:58:22.018Z,86.50
2019-05-16T06:00:52.479Z,86.80
2019-05-16T06:03:23.286Z,78.30
2019-05-16T06:05:52.386Z,83.10
2019-05-16T06:08:22.061Z,75.10
2019-05-16T06:10:51.850Z,81.30
2019-05-16T06:13:21.661Z,79.80
2019-05-16T06:15:54.385Z,78.40
2019-05-16T06:18:24.148Z,73.40
2019-05-16T06:20:53.958Z,73.70
2019-05-16T06:23:23.656Z,72.20
2019-05-16T06:25:53.396Z,69.80
2019-05-16T06:28:23.092Z,69.90
2019-05-16T06:30:52.881Z,69.70
2019-05-16T06:33:22.547Z,64.70
2019-05-16T06:35:52.228Z,58.40
2019-05-16T06:38:22.173Z,59.80
2019-05-16T06:40:52.689Z,60.70
2019-05-16T06:43:22.780Z,59.30
2019-05-16T06:45:52.394Z,58.40
2019-05-16T06:48:22.808Z,59.00
2019-05-16T06:50:51.985Z,61.00
2019-05-16T06:53:21.678Z,56.30
2019-05-16T06:55:51.719Z,60.00
2019-05-16T06:58:22.549Z,59.00
2019-05-16T07:00:52.879Z,58.90
2019-05-16T07:03:22.786Z,56.40
2019-05-16T07:05:54.146Z,57.40
2019-05-16T07:08:23.875Z,56.40
2019-05-16T07:10:54.556Z,58.10
2019-05-16T07:13:24.267Z,58.80
2019-05-16T07:15:54.005Z,58.80
2019-05-16T07:18:23.838Z,57.10
2019-05-16T07:20:54.076Z,57.50
2019-05-16T07:23:24.438Z,58.70
2019-05-16T07:25:53.486Z,60.20
2019-05-16T07:28:23.389Z,60.40
2019-05-16T07:30:53.227Z,62.60
2019-05-16T07:33:23.056Z,61.60
2019-05-16T07:35:52.830Z,60.70
2019-05-16T07:38:22.684Z,56.90
2019-05-16T07:40:52.468Z,58.70
2019-05-16T07:43:22.202Z,58.80
2019-05-16T07:45:51.972Z,56.90
2019-05-16T07:48:22.272Z,58.40
2019-05-16T07:50:52.052Z,56.50
2019-05-16T07:53:21.905Z,53.70
2019-05-16T07:55:52.817Z,50.80
2019-05-16T07:58:22.528Z,52.40
2019-05-16T08:01:02.639Z,51.80
2019-05-16T08:03:23.710Z,50.00
2019-05-16T08:05:53.457Z,52.20
2019-05-16T08:08:24.287Z,52.30
2019-05-16T08:10:54.465Z,49.50
2019-05-16T08:13:24.180Z,46.40
2019-05-16T08:15:53.835Z,44.60
2019-05-16T08:18:23.686Z,41.90
2019-05-16T08:20:52.895Z,43.40
2019-05-16T08:23:22.932Z,41.30
2019-05-16T08:25:53.665Z,46.00
2019-05-16T08:28:23.294Z,46.20
2019-05-16T08:30:53.284Z,45.30
2019-05-16T08:33:22.339Z,48.10
2019-05-16T08:35:52.022Z,48.00
2019-05-16T08:38:22.042Z,51.30
2019-05-16T08:41:06.470Z,50.10
2019-05-16T08:43:22.571Z,48.30
2019-05-16T08:45:52.325Z,50.60
2019-05-16T08:48:23.340Z,46.80
2019-05-16T08:50:54.649Z,47.80
2019-05-16T08:53:24.806Z,47.50
2019-05-16T08:55:54.305Z,48.40
2019-05-16T08:58:25.009Z,48.20
2019-05-16T09:00:55.568Z,47.40
2019-05-16T09:03:25.505Z,48.90
2019-05-16T09:05:55.327Z,49.70
2019-05-16T09:08:27.076Z,53.20
2019-05-16T09:11:02.075Z,52.70
2019-05-16T09:13:30.006Z,53.20
2019-05-16T09:16:03.001Z,55.00
2019-05-16T09:18:40.783Z,58.20
2019-05-16T09:21:07.338Z,59.10
2019-05-16T09:23:43.719Z,61.10
2019-05-16T09:26:09.067Z,58.30
2019-05-16T09:28:39.927Z,60.40
2019-05-16T09:31:10.073Z,57.40
2019-05-16T09:33:39.966Z,58.70
2019-05-16T09:36:09.902Z,57.70
2019-05-16T09:38:40.096Z,58.30
2019-05-16T09:41:10.868Z,58.40
2019-05-16T09:43:40.878Z,55.70
2019-05-16T09:46:10.547Z,55.50
2019-05-16T09:48:41.430Z,56.40
2019-05-16T09:51:11.280Z,54.30
2019-05-16T09:53:40.896Z,55.20
2019-05-16T09:56:10.621Z,56.00
2019-05-16T09:58:40.314Z,55.00
2019-05-16T10:01:10.142Z,53.80
2019-05-16T10:03:39.948Z,54.20
2019-05-16T10:06:09.675Z,54.00
2019-05-16T10:08:39.424Z,54.00
2019-05-16T10:11:09.315Z,55.70
2019-05-16T10:13:39.346Z,55.90
2019-05-16T10:16:09.129Z,56.40
2019-05-16T10:18:38.929Z,54.40
2019-05-16T10:21:08.753Z,54.00
2019-05-16T10:23:38.517Z,54.30
2019-05-16T10:42:06.849Z,44.40
2019-05-16T10:44:38.530Z,48.30
2019-05-16T10:47:07.689Z,50.80
2019-05-16T10:49:40.917Z,53.00
2019-05-16T10:52:08.760Z,55.00
2019-05-16T10:54:54.196Z,53.20
2019-05-16T10:57:11.210Z,53.60
2019-05-16T11:00:08.615Z,51.00
2019-05-16T11:02:12.395Z,50.20
2019-05-16T11:04:59.374Z,49.90
2019-05-16T11:07:13.463Z,51.40
2019-05-16T11:09:54.812Z,49.70
2019-05-16T11:12:19.964Z,51.60
2019-05-16T11:14:47.848Z,52.40
2019-05-16T11:17:19.054Z,49.70
2019-05-16T11:19:48.982Z,48.90
2019-05-16T11:22:18.701Z,49.10
2019-05-16T11:24:51.394Z,49.20
2019-05-16T11:27:21.068Z,49.50
2019-05-16T11:29:50.743Z,46.70
2019-05-16T11:32:20.530Z,45.50
2019-05-16T11:34:50.287Z,47.60
2019-05-16T11:37:19.933Z,47.60
2019-05-16T11:39:49.675Z,50.70
2019-05-16T11:42:21.803Z,50.30
2019-05-16T11:44:51.448Z,48.60
2019-05-16T11:47:23.848Z,51.20
2019-05-16T11:49:57.024Z,46.70
2019-05-16T11:52:26.765Z,50.20
2019-05-16T11:54:57.508Z,46.20
2019-05-16T11:57:28.237Z,47.90
2019-05-16T11:59:58.006Z,47.70
2019-05-16T12:02:28.075Z,47.00
2019-05-16T12:04:58.423Z,42.90
2019-05-16T12:07:33.383Z,48.60
2019-05-16T12:09:59.244Z,52.60
2019-05-16T12:12:28.894Z,51.80
2019-05-16T12:14:58.565Z,51.30
2019-05-16T12:17:28.225Z,50.90
2019-05-16T12:19:58.133Z,50.30
2019-05-16T12:22:27.974Z,48.40
2019-05-16T12:24:57.745Z,45.60
2019-05-16T12:27:32.893Z,49.00
2019-05-16T12:29:59.989Z,47.20
2019-05-16T12:32:29.607Z,48.60
2019-05-16T12:34:59.337Z,49.90
2019-05-16T12:37:30.624Z,50.90
2019-05-16T12:40:00.250Z,50.30
2019-05-16T12:42:30.175Z,50.60
2019-05-16T12:45:00.917Z,49.70
2019-05-16T12:47:30.599Z,48.70
2019-05-16T12:50:00.762Z,47.90
2019-05-16T12:52:30.572Z,48.50
2019-05-16T12:55:00.240Z,49.40
2019-05-16T12:57:31.314Z,48.20
2019-05-16T13:00:00.928Z,46.10
2019-05-16T13:02:30.927Z,47.10
2019-05-16T13:05:00.645Z,47.80
2019-05-16T13:07:30.392Z,46.10
2019-05-16T13:09:59.964Z,46.30
2019-05-16T13:12:29.866Z,46.00
2019-05-16T13:14:59.569Z,46.00
2019-05-16T13:17:29.358Z,47.40
2019-05-16T13:19:58.970Z,46.40
2019-05-16T13:22:28.934Z,45.40
2019-05-16T13:24:58.548Z,45.70
2019-05-16T13:27:28.322Z,43.40
2019-05-16T13:29:58.285Z,40.60
2019-05-16T13:32:29.098Z,40.40
2019-05-16T13:34:59.311Z,40.90
2019-05-16T13:37:29.324Z,42.10
2019-05-16T13:39:59.100Z,41.40
2019-05-16T13:42:28.896Z,44.00
2019-05-16T13:44:58.576Z,44.40
2019-05-16T13:47:28.570Z,43.80
2019-05-16T13:49:58.293Z,43.60
2019-05-16T13:52:28.448Z,44.70
2019-05-16T13:54:58.275Z,45.30
2019-05-16T13:57:28.433Z,46.90
2019-05-16T13:59:58.389Z,47.40
2019-05-16T14:02:28.217Z,46.20
2019-05-16T14:04:57.795Z,46.20
2019-05-16T14:07:28.873Z,47.30
2019-05-16T14:09:58.592Z,46.30
2019-05-16T14:12:28.460Z,46.20
2019-05-16T14:14:58.292Z,45.10
2019-05-16T14:17:28.000Z,46.60
2019-05-16T14:19:57.844Z,44.40
2019-05-16T14:22:27.866Z,44.40
2019-05-16T14:24:57.575Z,43.40
2019-05-16T14:27:27.288Z,43.50
2019-05-16T14:29:57.827Z,42.50
2019-05-16T14:32:27.633Z,42.50
2019-05-16T14:34:58.841Z,44.10
2019-05-16T14:37:28.835Z,44.40
2019-05-16T14:40:01.378Z,41.70
2019-05-16T14:42:31.361Z,41.00
2019-05-16T14:45:10.848Z,41.70
2019-05-16T14:47:32.408Z,41.20
2019-05-16T14:50:02.818Z,40.30
2019-05-16T14:52:31.967Z,41.10
2019-05-16T14:55:01.525Z,41.20
2019-05-16T14:57:31.599Z,41.70
2019-05-16T15:00:01.467Z,42.20
2019-05-16T15:02:38.179Z,42.60
2019-05-16T15:05:08.594Z,42.40
2019-05-16T15:07:38.229Z,42.90
2019-05-16T15:10:08.618Z,42.00
2019-05-16T15:12:38.626Z,41.40
2019-05-16T15:15:20.200Z,42.40
2019-05-16T15:17:41.406Z,43.20
2019-05-16T15:20:11.725Z,44.00
2019-05-16T15:22:41.477Z,43.10
2019-05-16T15:25:11.366Z,44.10
2019-05-16T15:27:41.164Z,42.90
2019-05-16T15:30:11.450Z,42.90
2019-05-16T15:32:41.281Z,44.60
2019-05-16T15:35:11.491Z,43.70
2019-05-16T15:37:41.066Z,45.90
2019-05-16T15:40:11.448Z,46.30
2019-05-16T15:42:41.849Z,47.00
2019-05-16T15:45:12.318Z,46.20
2019-05-16T15:47:42.008Z,46.50
2019-05-16T15:50:12.735Z,47.80
2019-05-16T15:52:44.526Z,49.20
2019-05-16T15:55:14.732Z,49.30
2019-05-16T15:57:47.256Z,47.80
2019-05-16T16:00:18.257Z,46.20
2019-05-16T16:02:48.920Z,47.80
2019-05-16T16:05:18.667Z,48.30
2019-05-16T16:07:48.403Z,50.60
2019-05-16T16:10:21.311Z,50.90
2019-05-16T16:12:50.912Z,52.20
2019-05-16T16:15:20.896Z,52.90
2019-05-16T16:17:50.472Z,53.10
2019-05-16T16:20:20.073Z,53.90
2019-05-16T16:22:49.810Z,53.10
2019-05-16T16:25:21.773Z,52.20
2019-05-16T16:27:51.397Z,51.00
2019-05-16T16:30:21.100Z,52.50
2019-05-16T16:32:50.815Z,54.10
2019-05-16T16:35:21.349Z,53.80
2019-05-16T16:37:51.043Z,52.70
2019-05-16T16:40:21.017Z,53.20
2019-05-16T16:42:50.714Z,51.60
2019-05-16T16:45:20.826Z,51.20
2019-05-16T16:47:50.675Z,53.70
2019-05-16T16:50:20.987Z,54.30
2019-05-16T16:52:50.719Z,54.80
2019-05-16T16:55:20.538Z,55.20
2019-05-16T16:57:55.571Z,54.60
2019-05-16T17:00:21.898Z,55.30
2019-05-16T17:03:03.081Z,53.90
2019-05-16T17:05:23.065Z,52.50
2019-05-16T17:07:52.998Z,53.60
2019-05-16T17:10:22.866Z,53.70
2019-05-16T17:12:54.238Z,55.50
2019-05-16T17:15:27.268Z,54.50
2019-05-16T17:17:57.504Z,54.80
2019-05-16T17:20:27.163Z,56.20
2019-05-16T17:22:57.288Z,56.90
2019-05-16T17:25:28.116Z,57.20
2019-05-16T17:27:58.002Z,56.60
2019-05-16T17:30:28.293Z,56.30
2019-05-16T17:32:58.021Z,55.00
2019-05-16T17:35:27.945Z,53.30
2019-05-16T17:37:57.678Z,53.60
2019-05-16T17:40:27.519Z,54.80
2019-05-16T17:42:57.156Z,55.60
2019-05-16T17:45:27.027Z,55.90
2019-05-16T17:47:57.218Z,54.00
2019-05-16T17:50:29.962Z,53.40
2019-05-16T17:53:00.103Z,54.10
2019-05-16T17:55:29.765Z,55.00
2019-05-16T17:57:59.874Z,55.40
2019-05-16T18:00:29.938Z,55.20
2019-05-16T18:02:59.937Z,56.00
2019-05-16T18:05:29.688Z,55.10
2019-05-16T18:07:59.547Z,54.80
2019-05-16T18:10:29.483Z,54.10
2019-05-16T18:12:59.908Z,54.20
2019-05-16T18:15:29.740Z,55.20
2019-05-16T18:17:59.565Z,55.30
2019-05-16T18:20:29.419Z,54.30
2019-05-16T18:22:59.216Z,54.80
2019-05-16T18:25:29.057Z,55.20
2019-05-16T18:27:58.800Z,54.80
2019-05-16T18:30:30.359Z,55.00
2019-05-16T18:33:00.998Z,55.30
2019-05-16T18:35:31.568Z,56.40
2019-05-16T18:38:01.434Z,57.00
2019-05-16T18:40:31.426Z,56.50
2019-05-16T18:43:01.263Z,57.00
2019-05-16T18:45:42.611Z,56.30
2019-05-16T18:48:14.261Z,57.10
2019-05-16T18:50:45.066Z,57.40
2019-05-16T18:53:17.791Z,58.30
2019-05-16T18:55:48.024Z,59.70
2019-05-16T18:58:18.138Z,61.30
2019-05-16T19:00:48.887Z,63.20
2019-05-16T19:03:18.772Z,64.30
2019-05-16T19:05:48.537Z,66.00
2019-05-16T19:08:19.186Z,68.30
2019-05-16T19:10:49.865Z,69.70
2019-05-16T19:13:19.695Z,70.80
2019-05-16T19:15:49.478Z,74.90
2019-05-16T19:18:19.318Z,74.80
2019-05-16T19:20:49.082Z,77.60
2019-05-16T19:23:19.135Z,77.80
2019-05-16T19:25:48.826Z,78.70
2019-05-16T19:28:18.581Z,79.70
2019-05-16T19:30:49.808Z,81.60
2019-05-16T19:33:19.573Z,82.20
2019-05-16T19:35:49.586Z,83.50
2019-05-16T19:38:19.457Z,83.20
2019-05-16T19:40:49.195Z,83.30
2019-05-16T19:43:18.934Z,84.50
2019-05-16T19:45:48.717Z,87.10
2019-05-16T19:48:18.502Z,83.50
2019-05-16T19:50:49.195Z,87.40
2019-05-16T19:53:20.380Z,87.00
2019-05-16T19:55:50.362Z,86.00
2019-05-16T19:58:20.417Z,87.80
2019-05-16T20:00:50.289Z,87.70
2019-05-16T20:03:20.015Z,86.80
2019-05-16T20:05:49.828Z,87.10
2019-05-16T20:08:19.595Z,86.80
2019-05-16T20:10:49.455Z,87.60
2019-05-16T20:13:19.282Z,87.40
2019-05-16T20:15:49.099Z,86.30
2019-05-16T20:18:18.915Z,87.20
2019-05-16T20:20:48.737Z,89.20
2019-05-16T20:23:20.174Z,88.70
2019-05-16T20:25:50.929Z,89.60
2019-05-16T20:28:20.704Z,89.10
2019-05-16T20:30:50.386Z,90.00
2019-05-16T20:33:20.161Z,89.40
2019-05-16T20:35:49.765Z,90.10
2019-05-16T20:38:19.723Z,90.00
2019-05-16T20:40:49.430Z,90.30
2019-05-16T20:43:19.343Z,90.00
2019-05-16T20:45:49.127Z,90.40
2019-05-16T20:48:18.959Z,90.50
2019-05-16T20:50:49.165Z,91.40
2019-05-16T20:53:21.254Z,91.40
2019-05-16T20:55:50.150Z,91.40
2019-05-16T20:58:19.883Z,92.50
2019-05-16T21:00:49.957Z,91.20
2019-05-16T21:03:19.895Z,90.90
2019-05-16T21:05:49.614Z,91.10
2019-05-16T21:08:19.870Z,91.80
2019-05-16T21:10:49.600Z,92.10
2019-05-16T21:13:19.432Z,91.90
2019-05-16T21:15:49.088Z,91.60
2019-05-16T21:18:18.903Z,92.10
2019-05-16T21:20:48.713Z,92.60
2019-05-16T21:23:19.808Z,91.80
2019-05-16T21:25:49.603Z,91.70
2019-05-16T21:28:19.897Z,91.80
2019-05-16T21:30:50.106Z,92.20
2019-05-16T21:33:19.815Z,92.00
2019-05-16T21:35:50.536Z,92.40
2019-05-16T21:38:20.356Z,92.10
2019-05-16T21:40:50.084Z,92.50
2019-05-16T21:43:19.889Z,92.50
2019-05-16T21:45:49.621Z,92.50
2019-05-16T21:48:19.613Z,92.60
2019-05-16T21:50:49.336Z,91.70
2019-05-16T21:53:20.125Z,91.90
2019-05-16T21:55:49.832Z,93.00
2019-05-16T21:58:19.752Z,92.70
2019-05-16T22:00:52.426Z,92.70
2019-05-16T22:03:23.143Z,93.20
2019-05-16T22:05:52.847Z,93.20
2019-05-16T22:08:22.557Z,92.60
2019-05-16T22:10:52.240Z,92.80
2019-05-16T22:13:21.932Z,92.70
2019-05-16T22:15:51.703Z,92.70
2019-05-16T22:18:21.644Z,92.60
2019-05-16T22:20:52.930Z,93.30
2019-05-16T22:23:22.882Z,93.50
2019-05-16T22:25:53.667Z,93.10
2019-05-16T22:28:22.624Z,94.10
2019-05-16T22:30:56.151Z,94.80
2019-05-16T22:33:26.783Z,94.00
2019-05-16T22:35:58.551Z,93.40
2019-05-16T22:38:28.715Z,94.10
2019-05-16T22:41:00.142Z,93.70
2019-05-16T22:43:32.494Z,93.70
2019-05-16T22:46:03.159Z,93.90
2019-05-16T22:48:37.179Z,93.60
2019-05-16T22:51:07.190Z,93.90
2019-05-16T22:53:37.101Z,94.20
2019-05-16T22:56:07.460Z,94.10
2019-05-16T22:58:38.277Z,94.10
2019-05-16T23:01:08.151Z,94.70
2019-05-16T23:03:38.147Z,94.10
2019-05-16T23:06:08.103Z,94.40
2019-05-16T23:08:38.677Z,94.60
2019-05-16T23:11:08.390Z,94.50
2019-05-16T23:13:37.975Z,94.60
2019-05-16T23:16:07.532Z,94.60
2019-05-16T23:18:37.651Z,94.60
2019-05-16T23:21:09.028Z,94.60
2019-05-16T23:23:38.618Z,94.50
2019-05-16T23:26:08.414Z,94.70
2019-05-16T23:28:38.005Z,95.00
2019-05-16T23:31:07.691Z,94.60
2019-05-16T23:33:37.401Z,94.30
2019-05-16T23:36:07.398Z,94.40
2019-05-16T23:38:38.147Z,94.70
2019-05-16T23:41:07.878Z,94.80
2019-05-16T23:43:37.657Z,94.60
2019-05-16T23:46:07.290Z,94.90
2019-05-16T23:48:36.968Z,95.00
2019-05-16T23:51:07.873Z,95.30
2019-05-16T23:53:38.687Z,95.40
2019-05-16T23:56:08.482Z,95.40
2019-05-16T23:58:38.195Z,95.00
